Aktualne dane pomiarowe

Uwaga, wersja testowa! Automatyczne pobieranie danych za pomocą narzędzi lub skryptów to umożliwiających jest zabronione.

Dane meteo z obszaru Polski uzyskane na podstawie depesz SYNOP pobieranych co godzinę z NWS. Najedź myszką na symbol przedstawiony w tabeli, aby uzyskać informacje co do jego znaczenia. Prosimy pamiętać, że to testowa wersja strony, która jeszcze nie jest ukończona. Stworzono również jest krótki FAQ dotyczący korzystania z tej podstrony Anomalie temperatury w chwili obecnej odniesione są do okresu referencyjnego 1951-2016. Okres ten będzie później zmieniony na 1981-2010. Kliknij ikonę aby pobrać plik CSV. Kliknij ikonę aby wygenerować mapę synoptyczną dla danego terminu.

Wybierz Datę:    

        

Bielsko-Biała (12600)

Dane terminowe dla wybranej stacji. Kliknij datę, aby otrzymać dane z tego terminu dla wszystkich stacji.

TemperaturaZachmurzenieWiatrCiśnienieOpadyPogoda
 Data t td wb tx tn tg rh  Nt Nl Cl Cm Ch ws wd g1 g2 wx mslp ppp ch 24h 12h t ww ww w1 w2  
2019-07-15 23:00:00 13.3 7.9 10.0--- 7030.0wxwxwxwx4wx--41015.2 967.9 0.5---------
2019-07-15 22:00:00 14.5 8.0 10.6--- 6530.0wxwxwxwx4wx--41014.7 967.7 0.4---------
2019-07-15 21:00:00 13.9 7.4 10.0--- 6530.0wxwxwx4wx--41014.8 967.7 0.8---------
2019-07-15 20:00:00 14.4 7.0 10.1--- 6130.0wxwxwx3wx--31014.5 967.4 0.6---------
2019-07-15 19:00:00 15.4 7.7 10.9--- 6040.0wxwxwx3wx--31014.2 967.3 0.3---------
2019-07-15 18:00:00 20.2 5.0 12.0 22.0 13.8- 3750.0wxwxwxwxwx1wx--11013.0 966.9 -0.4- 0.012------
2019-07-15 17:00:00 21.1 5.0 12.4--- 3550.0wxwxwxwx2wx--21012.7 966.8 -0.8---------
2019-07-15 16:00:00 21.6 5.1 12.7--- 3440.0wxwxwxwx2wx--21012.9 967.0 -0.9---------
2019-07-15 15:00:00 21.4 4.9 12.5--- 3440.0wxwxwxwx3wx--31013.2 967.3 -0.8---------
2019-07-15 14:00:00 21.6 6.3 13.2--- 3740.0wxwxwxwx2wx--21013.5 967.6 -0.7---------
2019-07-15 13:00:00 21.1 6.6 13.1--- 3940.0wxwxwx3wx--31013.9 967.9 -0.5---------
2019-07-15 12:00:00 19.6 6.0 12.1--- 4140.0wxwxwx3wx--31014.3 968.1 -0.6- 0.06------
2019-07-15 11:00:00 19.7 7.7 12.9--- 4640.0wxwxwx2wx--21014.5 968.3 -0.4---------
2019-07-15 10:00:00 18.4 8.4 12.6--- 5240.0wxwxwx2wx--21014.8 968.4 0.1---------
2019-07-15 09:00:00 17.5 7.5 11.8--- 5240.0wxwxwxwx2wx--21015.3 968.7 0.7---------
2019-07-15 08:00:00 16.5 8.9 12.0--- 6140.0wxwxwxwx3wx--31015.5 968.7 0.9---------
2019-07-15 07:00:00 15.0 9.6 11.6--- 7030.0wxwxwxwx4wx--41015.3 968.3 0.5---wx22--
2019-07-15 06:00:00 14.0 10.4 11.7 15.5 10.1 9 7920.0wxwxwxwx3wx--31015.1 968.0 0.5 1.2 0.012wx22- 2.3
2019-07-15 05:00:00 12.9 10.6 11.3--- 868.0wxwxwx2wx--21015.1 967.8 0.4---wx22--
2019-07-15 04:00:00 10.6 9.4 9.7--- 9215.0wxwxwx1wx--11015.5 967.8 0.2----22----
2019-07-15 03:00:00 11.3 9.9 10.3--- 9115.0wxwxwx3wx--31015.1 967.5 -0.3----22----
2019-07-15 02:00:00 11.1 9.5 10.0--- 9025.0wxwxwx2wx--21015.0 967.4 -0.4---------
2019-07-15 01:00:00 11.2 9.8 10.2--- 9130.0wxwxwx3wx--31015.2 967.6 -0.2---------
2019-07-15 00:00:00 12.0 9.7 10.5--- 8630.0wx-3wx--31015.3 967.8 0.3- 0.06------
2019-07-14 23:00:00 12.2 9.8 10.6--- 8530.0wx-3wx--31015.2 967.8 0.5---------
2019-07-14 22:00:00 12.1 9.7 10.5--- 8530.0wx-wx4wx--41015.3 967.8 0.8---------
2019-07-14 21:00:00 12.7 9.9 10.8--- 8340.0wx-wx4wx--41014.8 967.5 0.7---------
2019-07-14 20:00:00 12.7 10.6 11.3--- 8740.0wxwxwxwx4wx--41014.6 967.3 0.7---------
2019-07-14 19:00:00 13.9 11.1 12.0--- 8340.0wxwxwxwx3wx--31014.1 967.0 0.5---------
2019-07-14 18:00:00 15.5 11.1 12.7 19.3 14.3- 7530.0wxwxwxwxwx3wx-931013.6 966.8 0.1- 1.012wx-w1w2--
2019-07-14 17:00:00 15.9 11.5 13.0--- 7530.0wxwxwxwxwx2wx--21013.4 966.6 -0.1---wx---
2019-07-14 16:00:00 15.8 11.4 12.9--- 7530.0wxwxwx4wx--41013.3 966.5 -0.3---wx---
2019-07-14 15:00:00 16.1 11.0 12.8--- 7220.0wxwxwxwx2wx-921013.4 966.7 0.4---wx-w1w2--
2019-07-14 14:00:00 15.1 11.3 12.6--- 7820.0wxwxwx2wx---1013.6 966.7 0.2---wx---
2019-07-14 13:00:00 16.2 9.8 12.3--- 6610.0wxwxwx5wx-951013.5 966.8 0.0---wx-w1--
2019-07-14 12:00:00 18.7 12.2 14.6--- 6620.0wxwxwxwx3wx--31012.6 966.3 -0.3- 0.26wx-w1--
2019-07-14 11:00:00 17.6 13.1 14.6--- 7515.0wxwxwxwx2wx--21013.0 966.5 0.0---------
2019-07-14 10:00:00 15.4 13.2 13.9--- 876.0wxwxwx3wx--31013.7 966.8 0.4---wx---
2019-07-14 09:00:00 14.9 13.3 13.8--- 904.0wxwxwx3wx--31013.5 966.6 0.6---wx---
2019-07-14 08:00:00 15.9 13.4 14.2--- 858.0wxwxwx2wx--21013.3 966.5 0.7---wx---
2019-07-14 07:00:00 14.9 13.1 13.6--- 896.0wxwxwx2wx--21013.3 966.4 0.9---wx---
2019-07-14 06:00:00 14.4 13.4 13.7 16.5 13.9 14 943.0wxwxwx2wx--21013.0 966.0 0.6 2.8 1.012wx-w1- 3.9
2019-07-14 05:00:00 14.0 13.2 13.4--- 953.0wxwxwx2wx--21012.8 965.8 0.5---wx---
2019-07-14 04:00:00 13.9 13.1 13.3--- 953.0wxwxwx1wx--11012.5 965.5 0.4---wx-w1w2--
2019-07-14 03:00:00 14.2 13.4 13.6--- 953.5wxwxwx2wx--21012.4 965.4 0.4---wx---
2019-07-14 02:00:00 14.4 13.6 13.8--- 954.0wxwxwx2wx--21012.2 965.3 0.5---wx---
2019-07-14 01:00:00 14.4 13.6 13.8--- 955.0wxwxwx2wx--21012.0 965.1 0.4---wx---
2019-07-14 00:00:00 14.7 13.6 13.9--- 936.0wxwxwx2wx--21011.9 965.0 0.4--6wx-w1--
1.7 ms

 

Print Friendly, PDF & Email